Subpeak Weather - Last 24 Hours


View Last Hour    View Last 24 Hours

Time
Avg. Air Temp
Dew Point
Avg. Rel Humidity
Avg. 2 Min Wind Speed
Max Gust Velocity
MGV Time
MGV Direction
Avg. Spot Wind Velocity
2014-09-30 16:00:00-1° C-6° C64%16 km/h28 km/h2014-09-30 15:29:10NW15 km/h
2014-09-30 15:00:00-0° C-8° C61%14 km/h23 km/h2014-09-30 14:41:10NW12 km/h
2014-09-30 14:00:00-1° C-7° C60%6 km/h21 km/h2014-09-30 13:16:10NW9 km/h
2014-09-30 13:00:00-1° C-9° C66%5 km/h32 km/h2014-09-30 12:02:10N12 km/h
2014-09-30 12:00:00-1° C-8° C64%16 km/h26 km/h2014-09-30 12:00:10NW9 km/h
2014-09-30 11:00:00-1° C-6° C66%14 km/h20 km/h2014-09-30 10:01:00NW12 km/h
2014-09-30 10:00:00-1° C-6° C67%11 km/h20 km/h2014-09-30 09:22:10NW11 km/h
2014-09-30 09:00:00-1° C-6° C80%10 km/h19 km/h2014-09-30 08:12:10NW12 km/h
2014-09-30 08:00:00-1° C-4° C82%16 km/h23 km/h2014-09-30 07:56:10NW13 km/h
2014-09-30 07:00:00-1° C-4° C81%13 km/h28 km/h2014-09-30 06:08:10NE15 km/h
2014-09-30 06:00:00-1° C-4° C78%11 km/h28 km/h2014-09-30 05:08:10NW19 km/h
2014-09-30 05:00:00-0° C-3° C81%21 km/h32 km/h2014-09-30 04:06:10NW19 km/h
2014-09-30 04:00:000° C-3° C81%24 km/h29 km/h2014-09-30 03:22:10W20 km/h
2014-09-30 03:00:001° C-2° C80%22 km/h29 km/h2014-09-30 02:53:10W21 km/h
2014-09-30 02:00:001° C-2° C79%19 km/h28 km/h2014-09-30 01:19:10S19 km/h
2014-09-30 01:00:002° C-2° C78%19 km/h29 km/h2014-09-30 00:55:10SW22 km/h
2014-09-30 00:00:002° C-2° C78%24 km/h32 km/h2014-09-30 00:00:10W18 km/h
2014-09-29 23:00:002° C-1° C77%15 km/h27 km/h2014-09-29 22:01:00W18 km/h
2014-09-29 22:00:002° C-2° C77%23 km/h33 km/h2014-09-29 21:19:10W16 km/h
2014-09-29 21:00:003° C-0° C82%15 km/h23 km/h2014-09-29 20:24:10SW17 km/h
2014-09-29 20:00:004° C0° C78%14 km/h26 km/h2014-09-29 19:14:10S16 km/h
2014-09-29 19:00:004° C-0° C76%20 km/h29 km/h2014-09-29 18:33:10SW20 km/h
2014-09-29 18:00:004° C-0° C73%16 km/h22 km/h2014-09-29 17:43:10SW17 km/h
2014-09-29 17:00:005° C-1° C67%16 km/h29 km/h2014-09-29 16:27:10SW19 km/h